createdAt,value
2022-08-17T00:00:02.128Z,36.40
2022-08-17T00:03:00.131Z,39.78
2022-08-17T00:05:42.060Z,37.63
2022-08-17T00:08:11.020Z,38.85
2022-08-17T00:10:39.664Z,44.50
2022-08-17T00:13:20.527Z,37.85
2022-08-17T00:15:48.186Z,39.05
2022-08-17T00:19:01.685Z,36.58
2022-08-17T00:21:10.486Z,37.97
2022-08-17T00:23:39.449Z,39.72
2022-08-17T00:26:16.065Z,39.78
2022-08-17T00:29:03.933Z,42.70
2022-08-17T00:31:31.421Z,40.65
2022-08-17T00:33:59.770Z,43.83
2022-08-17T00:36:27.285Z,44.53
2022-08-17T00:38:54.503Z,45.55
2022-08-17T00:41:25.485Z,46.58
2022-08-17T00:43:59.463Z,43.97
2022-08-17T00:46:35.878Z,48.95
2022-08-17T00:49:05.550Z,48.00
2022-08-17T00:51:42.641Z,47.50
2022-08-17T00:54:25.929Z,49.15
2022-08-17T00:56:58.776Z,48.28
2022-08-17T00:59:31.105Z,50.38
2022-08-17T01:02:00.995Z,51.85
2022-08-17T01:04:30.340Z,50.35
2022-08-17T01:06:59.231Z,52.58
2022-08-17T01:09:27.493Z,45.28
2022-08-17T01:11:55.269Z,46.42
2022-08-17T01:14:24.172Z,43.53
2022-08-17T01:16:54.597Z,48.13
2022-08-17T01:19:24.532Z,47.13
2022-08-17T01:21:58.375Z,44.03
2022-08-17T01:24:27.785Z,45.00
2022-08-17T01:26:56.721Z,43.38
2022-08-17T01:29:26.091Z,39.50
2022-08-17T01:31:55.563Z,48.22
2022-08-17T01:34:25.048Z,47.65
2022-08-17T01:37:07.185Z,41.63
2022-08-17T01:39:37.429Z,45.72
2022-08-17T01:42:08.769Z,38.35
2022-08-17T01:44:38.117Z,43.80
2022-08-17T01:47:06.350Z,41.78
2022-08-17T01:49:34.465Z,38.95
2022-08-17T01:52:09.795Z,38.88
2022-08-17T01:54:39.412Z,44.08
2022-08-17T01:57:07.504Z,40.15
2022-08-17T01:59:35.137Z,42.67
2022-08-17T02:02:05.077Z,39.05
2022-08-17T02:04:32.854Z,42.30
2022-08-17T02:07:00.800Z,39.40
2022-08-17T02:09:30.053Z,42.15
2022-08-17T02:12:00.185Z,40.03
2022-08-17T02:14:48.183Z,40.40
2022-08-17T02:17:16.540Z,42.72
2022-08-17T02:19:44.220Z,37.85
2022-08-17T02:22:12.251Z,40.72
2022-08-17T02:25:01.188Z,39.28
2022-08-17T02:27:29.282Z,42.50
2022-08-17T02:29:57.612Z,45.03
2022-08-17T02:32:27.964Z,42.78
2022-08-17T02:34:57.536Z,42.38
2022-08-17T02:37:28.332Z,41.45
2022-08-17T02:39:58.908Z,41.75
2022-08-17T02:42:38.617Z,41.65
2022-08-17T02:45:07.748Z,40.13
2022-08-17T02:47:35.899Z,39.25
2022-08-17T02:50:03.996Z,39.30
2022-08-17T02:52:42.926Z,39.47
2022-08-17T02:55:14.462Z,38.47
2022-08-17T02:57:42.029Z,37.63
2022-08-17T03:00:12.509Z,36.65
2022-08-17T03:02:40.743Z,36.63
2022-08-17T03:05:13.330Z,35.92
2022-08-17T03:07:40.959Z,34.88
2022-08-17T03:10:09.139Z,34.67
2022-08-17T03:12:39.131Z,34.40
2022-08-17T03:15:08.285Z,31.52
2022-08-17T03:17:36.268Z,27.48
2022-08-17T03:20:05.067Z,26.15
2022-08-17T03:22:38.646Z,24.98
2022-08-17T03:25:10.596Z,22.90
2022-08-17T03:27:38.603Z,23.70
2022-08-17T03:30:11.146Z,24.85
2022-08-17T03:32:40.224Z,23.52
2022-08-17T03:35:08.310Z,25.10
2022-08-17T03:37:36.562Z,26.85
2022-08-17T03:40:05.357Z,25.48
2022-08-17T03:42:34.155Z,25.88
2022-08-17T03:45:02.659Z,27.33
2022-08-17T03:47:48.817Z,27.17
2022-08-17T03:50:36.032Z,24.75
2022-08-17T03:53:23.516Z,25.98
2022-08-17T03:56:10.412Z,28.92
2022-08-17T03:58:38.536Z,27.40
2022-08-17T04:01:07.649Z,29.63
2022-08-17T04:03:36.196Z,29.45
2022-08-17T04:06:03.990Z,28.50
2022-08-17T04:08:32.218Z,25.98
2022-08-17T04:11:01.360Z,25.38
2022-08-17T04:13:29.019Z,28.92
2022-08-17T04:15:57.412Z,23.95
2022-08-17T04:18:26.409Z,27.73
2022-08-17T04:20:54.248Z,30.38
2022-08-17T04:23:22.043Z,26.23
2022-08-17T04:25:50.727Z,26.42
2022-08-17T04:28:19.853Z,25.33
2022-08-17T04:30:49.803Z,26.15
2022-08-17T04:33:19.729Z,24.90
2022-08-17T04:35:50.528Z,26.25
2022-08-17T04:38:23.394Z,30.38
2022-08-17T04:41:10.696Z,29.23
2022-08-17T04:43:39.020Z,27.52
2022-08-17T04:46:11.441Z,30.25
2022-08-17T04:48:41.560Z,30.80
2022-08-17T04:51:10.861Z,32.25
2022-08-17T04:53:39.998Z,27.60
2022-08-17T04:56:08.193Z,35.92
2022-08-17T04:58:48.148Z,38.20
2022-08-17T05:01:19.073Z,50.63
2022-08-17T05:06:19.875Z,38.78
2022-08-17T05:08:47.538Z,30.63
2022-08-17T05:11:15.937Z,33.42
2022-08-17T05:13:43.732Z,25.38
2022-08-17T05:16:11.399Z,24.13
2022-08-17T05:18:39.269Z,37.13
2022-08-17T05:21:07.315Z,32.08
2022-08-17T05:23:42.864Z,24.52
2022-08-17T05:26:25.645Z,23.20
2022-08-17T05:28:57.212Z,15.00
2022-08-17T05:31:27.825Z,19.05
2022-08-17T05:33:56.905Z,15.95
2022-08-17T05:36:38.071Z,18.73
2022-08-17T05:39:16.215Z,20.23
2022-08-17T05:41:44.770Z,21.00
2022-08-17T05:44:12.532Z,24.65
2022-08-17T05:46:42.367Z,22.83
2022-08-17T05:49:11.185Z,19.73
2022-08-17T05:51:58.080Z,18.77
2022-08-17T05:54:25.855Z,13.68
2022-08-17T05:56:56.658Z,14.65
2022-08-17T05:59:31.148Z,10.35
2022-08-17T06:02:17.594Z,9.77
2022-08-17T06:04:54.565Z,8.20
2022-08-17T06:07:25.322Z,8.90
2022-08-17T06:09:53.048Z,7.40
2022-08-17T06:12:39.047Z,6.20
2022-08-17T06:15:09.678Z,7.80
2022-08-17T06:17:37.949Z,6.80
2022-08-17T06:20:26.272Z,6.63
2022-08-17T06:22:56.831Z,7.70
2022-08-17T06:25:26.768Z,5.80
2022-08-17T06:28:02.882Z,5.10
2022-08-17T06:30:57.497Z,6.78
2022-08-17T06:33:22.519Z,7.72
2022-08-17T06:36:02.763Z,7.38
2022-08-17T06:38:56.399Z,9.45
2022-08-17T06:41:36.501Z,11.13
2022-08-17T06:44:12.911Z,9.88
2022-08-17T06:47:06.157Z,10.43
2022-08-17T06:49:40.201Z,13.02
2022-08-17T06:52:45.305Z,15.30
2022-08-17T06:55:18.104Z,11.20
2022-08-17T06:57:50.672Z,14.65
2022-08-17T07:00:20.713Z,11.10
2022-08-17T07:02:55.563Z,14.90
2022-08-17T07:05:25.060Z,14.10
2022-08-17T07:08:03.236Z,14.98
2022-08-17T07:10:51.088Z,14.18
2022-08-17T07:13:21.534Z,16.00
2022-08-17T07:15:54.033Z,14.38
2022-08-17T07:18:25.946Z,9.82
2022-08-17T07:20:58.440Z,12.52
2022-08-17T07:23:46.608Z,14.38
2022-08-17T07:26:14.429Z,12.52
2022-08-17T07:28:44.216Z,13.38
2022-08-17T07:31:14.218Z,10.55
2022-08-17T07:33:58.474Z,10.25
2022-08-17T07:36:29.967Z,16.00
2022-08-17T07:38:58.496Z,12.15
2022-08-17T07:41:26.443Z,12.15
2022-08-17T07:44:14.922Z,13.45
2022-08-17T07:47:08.359Z,11.63
2022-08-17T07:49:42.384Z,14.43
2022-08-17T07:52:51.384Z,15.15
2022-08-17T07:55:34.948Z,13.93
2022-08-17T07:58:03.760Z,12.60
2022-08-17T08:00:33.632Z,15.65
2022-08-17T08:03:04.072Z,15.82
2022-08-17T08:05:49.728Z,12.60
2022-08-17T08:08:36.535Z,20.52
2022-08-17T08:11:18.071Z,14.52
2022-08-17T08:13:46.200Z,11.90
2022-08-17T08:16:30.986Z,15.30
2022-08-17T08:19:00.664Z,12.02
2022-08-17T08:24:43.199Z,16.60
2022-08-17T08:27:16.773Z,15.27
2022-08-17T08:30:05.141Z,17.13
2022-08-17T08:32:51.575Z,18.40
2022-08-17T08:35:29.749Z,16.58
2022-08-17T08:38:23.783Z,20.48
2022-08-17T08:40:57.552Z,16.58
2022-08-17T08:43:25.140Z,16.95
2022-08-17T08:46:05.839Z,16.70
2022-08-17T08:48:58.149Z,15.30
2022-08-17T08:51:35.416Z,16.63
2022-08-17T08:54:05.263Z,15.23
2022-08-17T08:57:19.772Z,14.10
2022-08-17T08:59:57.870Z,13.77
2022-08-17T09:02:34.624Z,13.52
2022-08-17T09:05:21.704Z,15.60
2022-08-17T09:07:58.870Z,13.93
2022-08-17T09:10:30.531Z,14.27
2022-08-17T09:13:09.583Z,14.77
2022-08-17T09:15:43.295Z,14.55
2022-08-17T09:19:00.954Z,15.10
2022-08-17T09:21:27.848Z,13.40
2022-08-17T09:24:02.495Z,15.00
2022-08-17T09:26:39.541Z,15.02
2022-08-17T09:29:10.270Z,18.05
2022-08-17T09:31:58.162Z,13.93
2022-08-17T09:34:33.350Z,17.10
2022-08-17T09:37:04.133Z,16.77
2022-08-17T09:39:35.520Z,15.80
2022-08-17T09:42:10.689Z,16.92
2022-08-17T09:44:41.661Z,17.65
2022-08-17T09:47:12.049Z,17.30
2022-08-17T09:49:48.203Z,18.17
2022-08-17T09:52:25.541Z,16.92
2022-08-17T09:54:54.404Z,15.32
2022-08-17T09:57:31.841Z,15.90
2022-08-17T09:59:59.951Z,18.30
2022-08-17T10:02:30.461Z,18.00
2022-08-17T10:05:10.095Z,23.80
2022-08-17T10:07:42.543Z,20.15
2022-08-17T10:10:15.887Z,22.70
2022-08-17T10:12:53.429Z,25.17
2022-08-17T10:15:26.019Z,24.70
2022-08-17T10:17:54.143Z,22.27
2022-08-17T10:20:34.735Z,21.70
2022-08-17T10:23:20.868Z,21.20
2022-08-17T10:26:06.021Z,22.85
2022-08-17T10:28:39.677Z,24.23
2022-08-17T10:31:33.750Z,23.42
2022-08-17T10:34:04.393Z,22.33
2022-08-17T10:36:43.273Z,23.27
2022-08-17T10:39:26.291Z,26.05
2022-08-17T10:41:57.030Z,22.15
2022-08-17T10:44:37.146Z,20.10
2022-08-17T10:47:10.732Z,18.35
2022-08-17T10:49:51.396Z,16.67
2022-08-17T10:52:22.746Z,17.75
2022-08-17T10:54:57.847Z,15.00
2022-08-17T10:57:37.695Z,14.15
2022-08-17T11:00:15.242Z,13.95
2022-08-17T11:02:45.912Z,16.23
2022-08-17T11:05:19.655Z,13.93
2022-08-17T11:07:53.293Z,15.35
2022-08-17T11:10:39.691Z,16.73
2022-08-17T11:13:23.663Z,15.88
2022-08-17T11:15:59.964Z,12.80
2022-08-17T11:18:34.874Z,14.70
2022-08-17T11:21:25.770Z,14.55
2022-08-17T11:24:12.388Z,10.70
2022-08-17T11:26:46.312Z,10.15
2022-08-17T11:29:24.740Z,10.20
2022-08-17T11:32:01.400Z,7.45
2022-08-17T11:34:31.227Z,8.20
2022-08-17T11:37:17.546Z,7.22
2022-08-17T11:40:06.095Z,7.20
2022-08-17T11:42:52.619Z,5.97
2022-08-17T11:45:38.955Z,6.20
2022-08-17T11:48:44.192Z,7.45
2022-08-17T11:51:35.202Z,6.70
2022-08-17T11:56:54.059Z,6.75
2022-08-17T11:59:36.259Z,8.18
2022-08-17T12:02:05.503Z,8.10
2022-08-17T12:04:35.145Z,8.60
2022-08-17T12:07:12.226Z,8.80
2022-08-17T12:09:42.218Z,9.45
2022-08-17T12:12:17.266Z,8.48
2022-08-17T12:17:41.272Z,8.27
2022-08-17T12:20:24.089Z,7.00
2022-08-17T12:23:00.976Z,6.57
2022-08-17T12:25:37.792Z,6.53
2022-08-17T12:28:08.009Z,6.05
2022-08-17T12:30:36.499Z,6.25
2022-08-17T12:33:04.502Z,5.57
2022-08-17T12:35:35.353Z,5.80
2022-08-17T12:38:04.704Z,5.97
2022-08-17T12:40:32.973Z,5.65
2022-08-17T12:43:02.167Z,4.72
2022-08-17T12:45:33.857Z,6.75
2022-08-17T12:48:09.219Z,5.80
2022-08-17T12:50:39.446Z,7.30
2022-08-17T12:53:14.696Z,4.68
2022-08-17T12:55:43.148Z,5.28
2022-08-17T12:58:15.783Z,5.22
2022-08-17T13:00:48.614Z,5.03
2022-08-17T13:03:21.959Z,5.03
2022-08-17T13:05:56.586Z,7.27
2022-08-17T13:08:30.233Z,6.22
2022-08-17T13:11:02.988Z,7.33
2022-08-17T13:13:32.572Z,5.88
2022-08-17T13:16:02.560Z,5.88
2022-08-17T13:18:36.024Z,7.70
2022-08-17T13:21:04.037Z,6.68
2022-08-17T13:23:32.379Z,7.32
2022-08-17T13:26:15.808Z,7.60
2022-08-17T13:28:51.917Z,8.63
2022-08-17T13:31:30.195Z,10.48
2022-08-17T13:34:13.741Z,9.68
2022-08-17T13:36:43.724Z,10.98
2022-08-17T13:39:24.296Z,10.23
2022-08-17T13:41:56.874Z,10.75
2022-08-17T13:44:30.727Z,12.32
2022-08-17T13:47:00.133Z,11.75
2022-08-17T13:49:48.335Z,12.65
2022-08-17T13:52:32.269Z,12.48
2022-08-17T13:55:06.468Z,13.65
2022-08-17T13:57:34.565Z,12.77
2022-08-17T14:00:12.584Z,14.98
2022-08-17T14:02:40.263Z,15.13
2022-08-17T14:05:08.244Z,15.18
2022-08-17T14:07:40.380Z,15.90
2022-08-17T14:10:15.680Z,14.90
2022-08-17T14:12:44.426Z,15.05
2022-08-17T14:15:13.858Z,17.08
2022-08-17T14:17:41.705Z,16.05
2022-08-17T14:20:10.406Z,15.88
2022-08-17T14:22:39.603Z,16.50
2022-08-17T14:25:08.697Z,15.95
2022-08-17T14:27:43.513Z,14.50
2022-08-17T14:30:23.010Z,14.10
2022-08-17T14:32:52.349Z,14.55
2022-08-17T14:35:22.392Z,14.48
2022-08-17T14:37:51.012Z,15.52
2022-08-17T14:40:21.288Z,13.77
2022-08-17T14:42:50.335Z,16.30
2022-08-17T14:45:31.983Z,16.00
2022-08-17T14:48:06.003Z,15.32
2022-08-17T14:50:35.852Z,16.58
2022-08-17T14:53:04.527Z,15.68
2022-08-17T14:55:32.999Z,17.35
2022-08-17T14:58:00.847Z,16.38
2022-08-17T15:00:28.837Z,16.70
2022-08-17T15:02:58.287Z,17.70
2022-08-17T15:05:27.985Z,19.40
2022-08-17T15:07:56.064Z,18.60
2022-08-17T15:10:25.918Z,19.83
2022-08-17T15:12:53.845Z,19.40
2022-08-17T15:15:21.883Z,19.23
2022-08-17T15:17:51.245Z,18.95
2022-08-17T15:20:20.945Z,20.35
2022-08-17T15:22:55.932Z,17.90
2022-08-17T15:25:25.046Z,20.52
2022-08-17T15:27:53.875Z,19.17
2022-08-17T15:30:21.686Z,20.70
2022-08-17T15:32:51.123Z,19.23
2022-08-17T15:35:27.784Z,19.38
2022-08-17T15:38:09.870Z,18.27
2022-08-17T15:40:40.273Z,18.23
2022-08-17T15:43:11.722Z,18.67
2022-08-17T15:45:40.034Z,19.50
2022-08-17T15:48:07.718Z,19.73
2022-08-17T15:50:35.835Z,18.83
2022-08-17T15:53:05.103Z,18.17
2022-08-17T15:55:33.475Z,17.88
2022-08-17T15:58:01.139Z,15.27
2022-08-17T16:00:29.535Z,16.42
2022-08-17T16:03:46.148Z,13.82
2022-08-17T16:05:48.475Z,9.73
2022-08-17T16:08:21.490Z,9.95
2022-08-17T16:10:50.098Z,10.63
2022-08-17T16:13:18.632Z,10.15
2022-08-17T16:15:56.192Z,9.70
2022-08-17T16:18:31.187Z,11.35
2022-08-17T16:23:47.297Z,9.48
2022-08-17T16:26:14.943Z,10.27
2022-08-17T16:28:42.760Z,9.95
2022-08-17T16:31:10.380Z,10.05
2022-08-17T16:33:39.432Z,8.90
2022-08-17T16:36:07.934Z,8.93
2022-08-17T16:38:36.379Z,14.10
2022-08-17T16:41:04.875Z,10.05
2022-08-17T16:43:33.226Z,11.20
2022-08-17T16:46:01.512Z,8.95
2022-08-17T16:48:30.212Z,11.10
2022-08-17T16:51:03.704Z,10.00
2022-08-17T16:55:59.669Z,10.10
2022-08-17T16:58:27.329Z,12.18
2022-08-17T17:00:59.927Z,10.45
2022-08-17T17:03:28.937Z,9.70
2022-08-17T17:06:03.694Z,9.52
2022-08-17T17:08:40.676Z,10.07
2022-08-17T17:11:33.762Z,10.95
2022-08-17T17:14:02.894Z,11.15
2022-08-17T17:16:51.000Z,12.13
2022-08-17T17:19:34.453Z,13.73
2022-08-17T17:22:07.889Z,11.00
2022-08-17T17:24:50.006Z,9.85
2022-08-17T17:27:20.636Z,12.75
2022-08-17T17:30:05.232Z,11.02
2022-08-17T17:32:45.119Z,11.85
2022-08-17T17:35:24.855Z,8.65
2022-08-17T17:37:53.967Z,10.27
2022-08-17T17:40:37.635Z,12.02
2022-08-17T17:43:34.692Z,9.80
2022-08-17T17:46:27.372Z,9.63
2022-08-17T17:48:55.678Z,14.25
2022-08-17T17:51:54.975Z,9.90
2022-08-17T17:54:28.715Z,10.03
2022-08-17T17:57:07.340Z,11.38
2022-08-17T17:59:47.665Z,13.07
2022-08-17T18:02:41.192Z,10.70
2022-08-17T18:05:24.185Z,11.27
2022-08-17T18:07:56.561Z,11.55
2022-08-17T18:10:30.385Z,11.73
2022-08-17T18:12:59.542Z,13.95
2022-08-17T18:15:34.331Z,14.27
2022-08-17T18:18:02.538Z,14.45
2022-08-17T18:20:32.372Z,15.27
2022-08-17T18:23:04.949Z,15.20
2022-08-17T18:25:46.132Z,14.48
2022-08-17T18:28:25.878Z,14.48
2022-08-17T18:31:06.102Z,14.27
2022-08-17T18:33:34.316Z,14.18
2022-08-17T18:36:01.884Z,15.70
2022-08-17T18:38:33.791Z,16.45
2022-08-17T18:41:04.222Z,16.27
2022-08-17T18:43:52.854Z,15.43
2022-08-17T18:46:36.070Z,18.00
2022-08-17T18:49:08.065Z,16.23
2022-08-17T18:51:42.663Z,16.23
2022-08-17T18:54:16.706Z,16.05
2022-08-17T18:56:49.054Z,15.43
2022-08-17T18:59:35.344Z,16.25
2022-08-17T19:02:28.379Z,15.48
2022-08-17T19:05:13.590Z,17.42
2022-08-17T19:07:46.847Z,14.95
2022-08-17T19:10:17.759Z,14.43
2022-08-17T19:13:12.344Z,13.02
2022-08-17T19:16:12.041Z,13.02
2022-08-17T19:18:39.166Z,12.88
2022-08-17T19:21:10.394Z,13.18
2022-08-17T19:23:41.323Z,13.88
2022-08-17T19:26:53.561Z,11.83
2022-08-17T19:29:29.730Z,12.02
2022-08-17T19:31:58.804Z,12.35
2022-08-17T19:34:33.972Z,12.23
2022-08-17T19:37:01.962Z,13.85
2022-08-17T19:39:38.071Z,13.50
2022-08-17T19:42:26.240Z,13.63
2022-08-17T19:45:03.405Z,13.48
2022-08-17T19:48:02.656Z,13.18
2022-08-17T19:50:39.191Z,15.50
2022-08-17T19:53:10.870Z,13.90
2022-08-17T19:55:51.464Z,13.90
2022-08-17T19:58:25.445Z,14.32
2022-08-17T20:00:53.597Z,14.75
2022-08-17T20:03:35.423Z,14.25
2022-08-17T20:06:14.044Z,15.13
2022-08-17T20:08:47.878Z,15.30
2022-08-17T20:11:21.948Z,15.50
2022-08-17T20:13:55.415Z,14.82
2022-08-17T20:16:23.911Z,16.20
2022-08-17T20:18:54.200Z,15.02
2022-08-17T20:21:34.418Z,15.20
2022-08-17T20:24:02.022Z,15.85
2022-08-17T20:26:58.121Z,16.02
2022-08-17T20:29:31.858Z,17.17
2022-08-17T20:32:14.345Z,16.70
2022-08-17T20:34:45.901Z,17.45
2022-08-17T20:37:13.654Z,16.98
2022-08-17T20:40:04.554Z,18.65
2022-08-17T20:42:33.672Z,17.83
2022-08-17T20:45:05.620Z,18.42
2022-08-17T20:47:36.549Z,17.40
2022-08-17T20:50:07.007Z,20.52
2022-08-17T20:52:46.990Z,19.67
2022-08-17T20:55:52.036Z,20.67
2022-08-17T20:58:23.358Z,21.48
2022-08-17T21:01:01.626Z,20.65
2022-08-17T21:03:47.959Z,20.13
2022-08-17T21:06:18.373Z,22.08
2022-08-17T21:12:02.751Z,22.85
2022-08-17T21:17:29.619Z,20.85
2022-08-17T21:20:11.092Z,21.23
2022-08-17T21:23:34.206Z,21.67
2022-08-17T21:26:07.587Z,23.35
2022-08-17T21:29:01.246Z,24.02
2022-08-17T21:31:37.164Z,22.45
2022-08-17T21:34:17.214Z,22.75
2022-08-17T21:36:45.468Z,24.50
2022-08-17T21:39:17.246Z,24.00
2022-08-17T21:41:53.001Z,22.80
2022-08-17T21:44:30.483Z,21.98
2022-08-17T21:47:12.589Z,23.30
2022-08-17T21:49:40.128Z,23.48
2022-08-17T21:52:07.859Z,22.63
2022-08-17T21:54:38.718Z,23.70
2022-08-17T21:57:08.059Z,22.55
2022-08-17T21:59:37.416Z,23.23
2022-08-17T22:02:25.452Z,22.52
2022-08-17T22:04:57.776Z,23.55
2022-08-17T22:07:36.803Z,23.20
2022-08-17T22:10:06.667Z,23.00
2022-08-17T22:12:34.306Z,23.25
2022-08-17T22:15:05.824Z,23.02
2022-08-17T22:17:35.532Z,22.45
2022-08-17T22:20:09.509Z,23.02
2022-08-17T22:22:57.515Z,23.70
2022-08-17T22:25:25.740Z,23.55
2022-08-17T22:27:58.914Z,21.15
2022-08-17T22:30:32.419Z,21.60
2022-08-17T22:33:01.073Z,21.27
2022-08-17T22:35:32.689Z,21.83
2022-08-17T22:38:18.956Z,22.55
2022-08-17T22:40:49.801Z,21.42
2022-08-17T22:43:21.213Z,19.65
2022-08-17T22:45:55.287Z,21.23
2022-08-17T22:48:26.698Z,21.75
2022-08-17T22:51:12.700Z,19.45
2022-08-17T22:54:05.917Z,20.63
2022-08-17T22:56:52.542Z,20.23
2022-08-17T22:59:38.696Z,20.50
2022-08-17T23:02:19.230Z,18.65
2022-08-17T23:04:51.514Z,20.25
2022-08-17T23:07:19.631Z,20.25
2022-08-17T23:09:47.318Z,20.02
2022-08-17T23:12:24.193Z,19.40
2022-08-17T23:14:57.179Z,18.95
2022-08-17T23:17:24.884Z,19.00
2022-08-17T23:19:53.271Z,17.48
2022-08-17T23:22:20.860Z,17.90
2022-08-17T23:24:50.629Z,18.08
2022-08-17T23:27:19.389Z,17.25
2022-08-17T23:29:48.678Z,16.95
2022-08-17T23:32:17.019Z,17.27
2022-08-17T23:34:47.109Z,17.15
2022-08-17T23:37:15.273Z,17.33
2022-08-17T23:39:45.029Z,17.30
2022-08-17T23:42:14.015Z,17.65
2022-08-17T23:44:43.680Z,16.52
2022-08-17T23:47:11.580Z,16.45
2022-08-17T23:49:40.395Z,16.77
2022-08-17T23:52:12.456Z,16.65
2022-08-17T23:54:44.382Z,16.98
2022-08-17T23:57:12.746Z,16.30
2022-08-17T23:59:40.545Z,17.42
